Time;durP1;ratioP1;P1;durP2;ratioP2;P2;SDS_P1;SDS_P2;PMS_P1;PMS_P2;Temp;Humidity;BMP_temperature;BMP_pressure;BME280_temperature;BME280_humidity;BME280_pressure;Samples;Min_cycle;Max_cycle;Signal;HPM_P1;HPM_P2
2023/04/15 00:01:38;;;;;;;6.25;1.60;;;3.00;99.90;;;;;;20844193;28;20061;-78
2023/04/15 00:11:39;;;;;;;6.28;1.30;;;3.00;99.90;;;;;;20800263;28;20053;-79
2023/04/15 00:21:40;;;;;;;2.35;1.10;;;3.30;99.90;;;;;;20796210;28;20056;-78
2023/04/15 00:31:41;;;;;;;;;;;3.70;99.90;;;;;;20789318;28;20030;-79
2023/04/15 00:41:42;;;;;;;3.33;1.10;;;3.70;99.90;;;;;;20798773;28;19916;-78
2023/04/15 00:51:43;;;;;;;1.42;1.02;;;3.90;99.90;;;;;;20793126;28;20026;-78
2023/04/15 01:01:45;;;;;;;;;;;3.80;99.90;;;;;;20807515;28;20041;-78
2023/04/15 01:11:46;;;;;;;6.22;1.38;;;3.90;99.90;;;;;;20874019;28;19952;-78
2023/04/15 01:21:46;;;;;;;;;;;4.00;99.90;;;;;;20880185;28;20025;-78
2023/04/15 01:31:55;;;;;;;2.53;1.17;;;4.10;99.90;;;;;;20853258;28;19914;-78
2023/04/15 01:41:56;;;;;;;4.60;1.27;;;4.00;99.90;;;;;;20792351;28;20037;-78
2023/04/15 01:51:58;;;;;;;1.65;0.90;;;4.10;99.90;;;;;;20791783;28;20030;-78
2023/04/15 02:01:59;;;;;;;;;;;4.30;99.90;;;;;;20792112;28;20124;-78
2023/04/15 02:12:01;;;;;;;8.97;1.80;;;4.20;99.90;;;;;;20793376;28;19913;-78
2023/04/15 02:22:02;;;;;;;4.80;1.85;;;4.30;99.90;;;;;;20751672;28;20026;-77
2023/04/15 02:32:03;;;;;;;;;;;4.40;99.90;;;;;;20751241;28;20389;-77
2023/04/15 02:42:04;;;;;;;4.65;2.20;;;4.20;99.90;;;;;;20747407;28;19913;-77
2023/04/15 02:52:06;;;;;;;8.95;2.10;;;4.20;99.90;;;;;;20758423;28;20033;-76
2023/04/15 03:02:07;;;;;;;6.68;1.98;;;4.20;99.90;;;;;;20746554;28;20034;-79
2023/04/15 03:12:08;;;;;;;;;;;4.30;99.90;;;;;;20751045;28;20113;-77
2023/04/15 03:22:09;;;;;;;4.85;2.40;;;4.30;99.90;;;;;;20745716;28;19913;-77
2023/04/15 03:32:10;;;;;;;;;;;4.10;99.90;;;;;;20744061;28;20037;-77
2023/04/15 03:42:12;;;;;;;6.78;2.65;;;4.20;99.90;;;;;;20743713;28;19913;-77
2023/04/15 03:52:12;;;;;;;;;;;4.30;99.90;;;;;;20780663;28;20543;-78
2023/04/15 04:02:13;;;;;;;4.77;2.27;;;4.30;99.90;;;;;;20754396;28;19909;-77
2023/04/15 04:12:14;;;;;;;6.40;2.60;;;4.30;99.90;;;;;;20688821;28;20034;-78
2023/04/15 04:22:15;;;;;;;6.15;2.53;;;4.30;99.90;;;;;;20703548;28;20030;-78
2023/04/15 04:32:16;;;;;;;12.18;2.30;;;4.30;99.90;;;;;;20797604;28;20146;-79
2023/04/15 04:42:16;;;;;;;4.53;1.98;;;4.50;99.90;;;;;;20852507;28;20041;-79
2023/04/15 04:52:17;;;;;;;4.10;1.80;;;4.40;99.90;;;;;;20872773;28;20040;-80
2023/04/15 05:02:18;;;;;;;2.65;1.50;;;4.20;99.90;;;;;;20823552;28;20033;-80
2023/04/15 05:12:19;;;;;;;6.18;1.50;;;4.30;99.90;;;;;;20761370;28;20045;-79
2023/04/15 05:22:20;;;;;;;8.15;2.30;;;4.30;99.90;;;;;;20759736;28;20030;-78
2023/04/15 05:32:21;;;;;;;3.40;1.33;;;4.40;99.90;;;;;;20765958;28;20560;-79
2023/04/15 05:42:22;;;;;;;7.15;2.17;;;4.50;99.90;;;;;;20734597;28;20101;-79
2023/04/15 05:52:23;;;;;;;2.80;1.52;;;4.60;99.90;;;;;;20771432;28;20519;-79
2023/04/15 06:02:24;;;;;;;8.10;2.30;;;4.70;99.90;;;;;;20797020;28;20026;-79
2023/04/15 06:12:24;;;;;;;4.47;1.50;;;4.70;99.90;;;;;;20801517;28;20057;-79
2023/04/15 06:22:25;;;;;;;;;;;4.70;99.90;;;;;;20796739;28;20104;-79
2023/04/15 06:32:26;;;;;;;5.27;1.40;;;4.80;99.90;;;;;;20768943;28;20033;-80
2023/04/15 06:42:27;;;;;;;3.55;1.88;;;4.90;99.90;;;;;;20728751;28;20038;-79
2023/04/15 06:52:27;;;;;;;;;;;5.30;99.90;;;;;;20772334;28;20034;-79
2023/04/15 07:02:28;;;;;;;8.93;2.03;;;5.60;99.90;;;;;;20771046;28;20339;-78
2023/04/15 07:12:29;;;;;;;;;;;5.70;99.90;;;;;;20779188;28;20029;-78
2023/04/15 07:22:30;;;;;;;6.28;1.75;;;6.00;99.90;;;;;;20786027;28;19909;-78
2023/04/15 07:32:32;;;;;;;13.52;4.68;;;6.50;99.90;;;;;;20810803;28;20046;-79
2023/04/15 07:42:34;;;;;;;5.13;1.77;;;6.70;99.90;;;;;;20801768;28;20034;-79
2023/04/15 07:52:38;;;;;;;5.57;1.80;;;7.00;99.90;;;;;;20811675;28;20037;-79
2023/04/15 08:02:39;;;;;;;4.22;2.10;;;7.50;99.90;;;;;;20804155;28;20105;-79
2023/04/15 08:12:40;;;;;;;9.27;2.35;;;8.30;99.90;;;;;;20794143;28;20100;-79
2023/04/15 08:22:41;;;;;;;5.47;2.00;;;9.10;99.90;;;;;;20783164;28;20033;-80
2023/04/15 08:32:45;;;;;;;5.10;2.10;;;9.70;99.90;;;;;;20774705;28;20033;-80
2023/04/15 08:42:50;;;;;;;3.03;1.80;;;9.90;99.90;;;;;;20780043;28;20340;-80
2023/04/15 08:52:54;;;;;;;3.70;2.10;;;9.80;99.90;;;;;;20784761;28;20025;-81
2023/04/15 09:02:57;;;;;;;5.85;1.58;;;9.80;99.90;;;;;;20781272;28;20030;-81
2023/04/15 09:12:58;;;;;;;3.95;1.77;;;9.80;99.90;;;;;;20782767;28;20029;-80
2023/04/15 09:22:59;;;;;;;3.42;1.13;;;9.80;99.90;;;;;;20786629;28;20021;-80
2023/04/15 09:33:03;;;;;;;2.27;1.30;;;9.80;99.90;;;;;;20779685;28;20037;-79
2023/04/15 09:43:05;;;;;;;5.38;1.90;;;9.50;99.90;;;;;;20768962;28;20034;-78
2023/04/15 09:53:15;;;;;;;3.50;1.60;;;9.60;99.90;;;;;;20756896;28;20662;-79
2023/04/15 10:03:18;;;;;;;2.78;1.23;;;9.90;99.90;;;;;;20763652;28;20119;-78
2023/04/15 10:13:22;;;;;;;3.75;1.17;;;9.80;99.90;;;;;;20776932;28;20038;-80
2023/04/15 10:23:24;;;;;;;3.28;0.90;;;10.40;99.90;;;;;;20774768;28;20522;-79
2023/04/15 10:33:26;;;;;;;4.13;1.10;;;10.20;99.90;;;;;;20771661;28;20079;-80
2023/04/15 10:43:27;;;;;;;5.22;1.33;;;10.00;99.90;;;;;;20771507;28;20037;-78
2023/04/15 10:53:29;;;;;;;2.17;1.00;;;9.90;99.90;;;;;;20770754;28;20034;-80
2023/04/15 11:03:41;;;;;;;6.68;1.00;;;10.30;99.90;;;;;;20772250;28;20053;-79
2023/04/15 11:13:49;;;;;;;1.75;0.77;;;10.40;99.90;;;;;;20780283;28;20102;-81
2023/04/15 11:23:50;;;;;;;1.75;1.02;;;10.40;99.90;;;;;;20781675;28;20042;-79
2023/04/15 11:33:57;;;;;;;3.37;0.83;;;10.50;99.90;;;;;;20772083;28;20045;-80
2023/04/15 11:43:58;;;;;;;1.60;0.82;;;10.80;99.90;;;;;;20765147;28;20034;-79
2023/04/15 11:53:59;;;;;;;1.57;1.00;;;10.70;99.90;;;;;;20764986;28;20744;-81
2023/04/15 12:04:02;;;;;;;2.17;0.80;;;10.50;99.90;;;;;;20768446;28;20038;-81
2023/04/15 12:14:25;;;;;;;1.23;0.93;;;10.50;99.90;;;;;;20785930;28;20040;-81
2023/04/15 12:24:26;;;;;;;3.60;0.75;;;10.70;99.90;;;;;;20777552;28;20085;-78
2023/04/15 12:34:32;;;;;;;2.38;1.23;;;10.20;99.90;;;;;;20786420;28;20042;-81
2023/04/15 12:44:34;;;;;;;3.30;0.90;;;10.30;99.90;;;;;;20782539;28;20515;-81
2023/04/15 12:54:35;;;;;;;1.63;0.80;;;10.70;99.90;;;;;;20790197;28;20128;-80
2023/04/15 13:04:36;;;;;;;1.87;0.77;;;11.10;99.90;;;;;;20785122;28;20029;-80
2023/04/15 13:14:37;;;;;;;1.40;0.90;;;10.90;99.90;;;;;;20785617;28;20540;-80
2023/04/15 13:24:38;;;;;;;2.70;0.77;;;10.80;99.90;;;;;;20785462;28;20034;-81
2023/04/15 13:34:38;;;;;;;0.60;0.50;;;10.40;99.90;;;;;;20785126;28;20052;-80
2023/04/15 13:44:39;;;;;;;4.50;0.70;;;10.60;99.90;;;;;;20783476;28;20037;-81
2023/04/15 13:54:40;;;;;;;2.20;0.50;;;10.40;99.90;;;;;;20786693;28;20037;-81
2023/04/15 14:04:41;;;;;;;3.13;0.90;;;10.20;99.90;;;;;;20780732;28;20030;-81
2023/04/15 14:14:42;;;;;;;3.73;1.40;;;10.00;99.90;;;;;;20795681;28;20037;-80
2023/04/15 14:24:42;;;;;;;3.70;1.93;;;9.90;99.90;;;;;;20779566;28;20033;-80
2023/04/15 14:34:43;;;;;;;3.90;1.87;;;9.80;99.90;;;;;;20777370;28;20060;-82
2023/04/15 14:44:44;;;;;;;3.10;1.00;;;9.80;99.90;;;;;;20784097;28;20036;-79
2023/04/15 14:54:45;;;;;;;2.90;0.87;;;9.80;99.90;;;;;;20862101;28;20033;-81
2023/04/15 15:04:46;;;;;;;3.27;0.87;;;9.40;99.90;;;;;;20866295;28;20287;-77
2023/04/15 15:14:47;;;;;;;3.80;1.30;;;9.40;99.90;;;;;;20840242;28;20040;-81
2023/04/15 15:24:47;;;;;;;3.67;1.57;;;9.70;99.90;;;;;;20782329;28;20410;-78
2023/04/15 15:34:48;;;;;;;2.83;1.90;;;9.40;99.90;;;;;;20783023;28;20493;-78
2023/04/15 15:44:51;;;;;;;3.40;1.00;;;9.00;99.90;;;;;;20794997;28;20416;-80
2023/04/15 15:54:52;;;;;;;5.80;1.55;;;9.10;99.90;;;;;;20800147;28;20045;-80
2023/04/15 16:04:53;;;;;;;4.83;1.80;;;9.30;99.90;;;;;;20800663;28;20034;-81
2023/04/15 16:14:53;;;;;;;4.40;1.70;;;9.40;99.90;;;;;;20793125;28;20030;-79
2023/04/15 16:24:54;;;;;;;4.00;1.80;;;9.50;99.90;;;;;;20785211;28;20022;-79
2023/04/15 16:34:55;;;;;;;2.20;0.97;;;10.30;99.90;;;;;;20782529;28;20030;-79
2023/04/15 16:44:56;;;;;;;2.90;0.83;;;10.20;99.90;;;;;;20781580;28;20084;-79
2023/04/15 16:54:57;;;;;;;2.00;1.00;;;10.10;99.90;;;;;;20777425;28;20033;-79
2023/04/15 17:04:57;;;;;;;2.83;1.33;;;10.10;99.90;;;;;;20769491;28;20037;-79
2023/04/15 17:14:58;;;;;;;3.40;1.30;;;9.90;99.90;;;;;;20781919;28;20040;-79
2023/04/15 17:24:59;;;;;;;2.40;1.20;;;9.60;99.90;;;;;;20782216;28;20041;-81
2023/04/15 17:35:02;;;;;;;3.70;1.60;;;9.80;99.90;;;;;;20824525;28;20080;-79
2023/04/15 17:45:03;;;;;;;3.53;1.73;;;9.90;99.90;;;;;;20852129;28;20072;-79
2023/04/15 17:55:05;;;;;;;3.53;1.50;;;9.70;99.90;;;;;;20780121;28;20073;-80
2023/04/15 18:05:07;;;;;;;8.10;1.70;;;9.60;99.90;;;;;;20783120;28;20045;-78
2023/04/15 18:15:08;;;;;;;3.40;1.60;;;9.40;99.90;;;;;;20773907;28;20030;-81
2023/04/15 18:25:09;;;;;;;;;;;9.00;99.90;;;;;;20773885;28;20072;-79
2023/04/15 18:35:10;;;;;;;6.05;1.40;;;8.80;99.90;;;;;;20770075;28;19917;-80
2023/04/15 18:45:11;;;;;;;2.83;1.53;;;8.70;99.90;;;;;;20768867;28;20413;-79
2023/04/15 18:55:11;;;;;;;4.07;0.90;;;8.50;99.90;;;;;;20763054;28;20040;-80
2023/04/15 19:05:12;;;;;;;1.57;1.00;;;8.60;99.90;;;;;;20772703;28;20049;-79
2023/04/15 19:15:13;;;;;;;1.50;1.03;;;8.50;99.90;;;;;;20776424;28;20026;-80
2023/04/15 19:25:14;;;;;;;2.70;1.63;;;8.50;99.90;;;;;;20790076;28;20029;-79
2023/04/15 19:35:15;;;;;;;3.47;1.80;;;8.60;99.90;;;;;;20793880;28;20034;-80
2023/04/15 19:45:16;;;;;;;6.50;2.60;;;8.60;99.90;;;;;;20785480;28;20494;-80
2023/04/15 19:55:16;;;;;;;6.13;1.60;;;8.30;99.90;;;;;;20785596;28;20056;-80
2023/04/15 20:05:17;;;;;;;2.90;2.03;;;8.20;99.90;;;;;;20792701;28;20030;-80
2023/04/15 20:15:18;;;;;;;3.10;1.87;;;8.20;99.90;;;;;;20791622;28;20408;-80
2023/04/15 20:25:19;;;;;;;3.70;2.30;;;8.10;99.90;;;;;;20789524;28;20030;-81
2023/04/15 20:35:20;;;;;;;5.27;2.27;;;8.00;99.90;;;;;;20789923;28;20301;-79
2023/04/15 20:45:21;;;;;;;9.27;2.47;;;8.00;99.90;;;;;;20796170;28;20320;-79
2023/04/15 20:55:22;;;;;;;3.70;2.17;;;8.10;99.90;;;;;;20787433;28;20091;-80
2023/04/15 21:05:23;;;;;;;5.80;2.47;;;8.10;99.90;;;;;;20788810;28;20072;-80
2023/04/15 21:15:24;;;;;;;5.90;2.80;;;8.20;99.90;;;;;;20785093;28;20041;-79
2023/04/15 21:25:24;;;;;;;3.73;2.43;;;8.30;99.90;;;;;;20787303;28;20026;-80
2023/04/15 21:35:25;;;;;;;5.20;2.60;;;8.30;99.90;;;;;;20807078;28;20108;-78
2023/04/15 21:45:26;;;;;;;5.45;2.85;;;8.30;99.90;;;;;;20767328;28;20022;-78
2023/04/15 21:55:27;;;;;;;4.20;2.13;;;8.20;99.90;;;;;;20779973;28;20113;-78
2023/04/15 22:05:28;;;;;;;5.17;1.40;;;8.10;99.90;;;;;;20778807;28;20041;-80
2023/04/15 22:15:29;;;;;;;3.27;1.50;;;8.10;99.90;;;;;;20779301;28;20133;-78
2023/04/15 22:25:30;;;;;;;2.92;1.30;;;8.20;99.90;;;;;;20782407;28;20113;-79
2023/04/15 22:35:31;;;;;;;5.78;1.58;;;8.20;99.90;;;;;;20791479;28;20497;-80
2023/04/15 22:45:32;;;;;;;5.70;1.40;;;8.10;99.90;;;;;;20779671;28;20083;-79
2023/04/15 22:55:32;;;;;;;2.50;1.33;;;8.20;99.90;;;;;;20778114;28;20030;-79
2023/04/15 23:05:33;;;;;;;4.90;1.40;;;8.20;99.90;;;;;;20779072;28;20026;-79
2023/04/15 23:15:34;;;;;;;2.70;1.30;;;8.20;99.90;;;;;;20781901;28;20037;-80
2023/04/15 23:25:35;;;;;;;2.60;1.40;;;8.20;99.90;;;;;;20779683;28;20034;-79
2023/04/15 23:35:36;;;;;;;3.35;1.40;;;8.20;99.90;;;;;;20774567;28;20088;-80
2023/04/15 23:45:37;;;;;;;3.28;1.92;;;8.10;99.90;;;;;;20795530;28;20183;-79
2023/04/15 23:55:38;;;;;;;3.43;2.30;;;8.00;99.90;;;;;;20859852;28;20042;-79
